Flight Track Log - Related Links

Times and Time Zones

All times are in EDT time to prevent confusion due to time zone crossing. See the CTL312 flight status page for this flight to view local times or setup timezone preferences in your user account.

Time Position Orientation Groundspeed Altitude Reporting Facility
EDT Latitude Longitude Course Direction KTS MPH feet Rate Location/Type
Tue 09:44:24 PM 41.5336 -81.6789 327° Northwest 121 139 1,100  Level Cleveland Center
Tue 09:45:31 PM 41.5667 -81.7072 327° Northwest 145 167 2,000 787 Climbing Cleveland Center
Tue 09:46:26 PM 41.5872 -81.7436 307° West 141 162 2,700 730 Climbing Cleveland Center
Tue 09:47:26 PM 41.6097 -81.7828 308° West 141 162 3,400 694 Climbing Cleveland Center
Tue 09:48:27 PM 41.6383 -81.8250 312° West 133 153 4,100 647 Climbing Cleveland Center
Tue 09:49:08 PM 41.6528 -81.8475 311° West 141 162 4,500 594 Climbing Cleveland Center
Tue 09:50:08 PM 41.6794 -81.8842 314° West 141 162 5,100 600 Climbing Cleveland Center
Tue 09:51:08 PM 41.7042 -81.9181 314° West 136 157 5,700 500 Climbing Cleveland Center
Tue 09:52:08 PM 41.7286 -81.9575 310° West 136 157 6,100 200 Climbing Cleveland Center
Tue 09:53:08 PM 41.7575 -81.9972 314° West 136 157 6,100 -50 Level Cleveland Center
Tue 09:54:08 PM 41.7839 -82.0422 308° West 143 165 6,000 -50 Descending Cleveland Center
Tue 09:55:08 PM 41.8106 -82.0847 310° West 150 173 6,000  Level Cleveland Center
Tue 09:56:08 PM 41.8392 -82.1272 312° West 155 178 6,000  Level Cleveland Center
Tue 09:57:08 PM 41.8675 -82.1725 310° West 155 178 6,000  Level Cleveland Center
Tue 09:58:08 PM 41.8961 -82.2150 312° West 160 184 6,000  Level Cleveland Center
Tue 09:59:08 PM 41.9206 -82.2603 306° West 160 184 6,000  Level Cleveland Center
Tue 10:00:08 PM 41.9450 -82.2972 312° West 155 178 6,000 -62 Level Cleveland Center
Tue 10:00:45 PM 41.9675 -82.3286 314° West 148 170 5,900 50 Descending Cleveland Center
Tue 10:02:08 PM 42.0019 -82.3883 308° West 155 178 6,100  Climbing Cleveland Center
Tue 10:02:40 PM 42.0164 -82.4108 311° West 144 166 5,900 -65 Descending Cleveland Center
Tue 10:03:41 PM 42.0469 -82.4483 318° Northwest 149 171 6,000  Climbing Cleveland Center
Tue 10:04:48 PM 42.0753 -82.4967 308° West 148 170 5,900 -47 Descending Cleveland Center
Tue 10:05:49 PM 42.1058 -82.5367 316° Northwest 150 173 5,900 49 Level Cleveland Center
Tue 10:06:50 PM 42.1322 -82.5822 308° West 153 176 6,000  Climbing Cleveland Center
Tue 10:07:51 PM 42.1606 -82.6253 312° West 153 176 5,900  Descending Cleveland Center
Tue 10:09:08 PM 42.1950 -82.6794 311° West 160 184 6,000  Climbing Cleveland Center
Tue 10:09:58 PM 42.2214 -82.7197 312° West 156 180 5,900 -114 Descending Cleveland Center
Tue 10:10:53 PM 42.2478 -82.7600 312° West 159 183 5,800 -310 Descending Cleveland Center
Tue 10:11:54 PM 42.2781 -82.8086 310° West 166 191 5,300 -541 Descending Cleveland Center
Tue 10:12:55 PM 42.3064 -82.8544 310° West 169 194 4,700 -466 Descending Cleveland Center
Tue 10:13:50 PM 42.3367 -82.9033 310° West 167 192 4,400 -414 Descending Cleveland Center
Tue 10:14:51 PM 42.3650 -82.9494 310° West 170 196 3,900 -295 Descending Cleveland Center
Tue 10:15:52 PM 42.3953 -82.9983 310° West 160 184 3,800 -50 Descending Cleveland Center
Tue 10:16:52 PM 42.4256 -83.0389 315° West 157 181 3,800 -47 Level Cleveland Center
Tue 10:17:59 PM 42.4558 -83.0906 308° West 153 176 3,700 -246 Descending Cleveland Center
Tue 10:18:54 PM 42.4842 -83.1311 313° West 163 188 3,300 -327 Descending Cleveland Center
Tue 10:19:49 PM 42.5103 -83.1744 309° West 159 183 3,100 -246 Descending Cleveland Center
Tue 10:20:56 PM 42.5425 -83.2239 312° West 158 182 2,800 -281 Descending Cleveland Center
Tue 10:21:57 PM 42.5708 -83.2617 316° Northwest 151 174 2,500 -375 Descending Cleveland Center
Tue 10:23:04 PM 42.6072 -83.3056 318° Northwest 148 170 2,000 -375 Descending Cleveland Center
Tue 10:24:05 PM 42.6333 -83.3433 313° West 138 159 1,700 -246 Descending Cleveland Center
Tue 10:25:06 PM 42.6553 -83.3839 306° West 115 132 1,500 -197 Descending Cleveland Center
Tue 10:27:00 PM 42.6500 -83.4167 304° West  Level FlightAware Approximate
Tue 10:34:00 PM 42.6656 -83.4205 304° West  Level Estimated

Login

Don't have an account? Register now (free) for customized features, flight alerts, and more!